Time;durP1;ratioP1;P1;durP2;ratioP2;P2;SDS_P1;SDS_P2;PMS_P1;PMS_P2;Temp;Humidity;BMP_temperature;BMP_pressure;BME280_temperature;BME280_humidity;BME280_pressure;Samples;Min_cycle;Max_cycle;Signal;HPM_P1;HPM_P2
2022/07/14 00:00:37;;;;;;;11.27;2.88;;;15.50;99.90;;;;;;4978930;28;20046;-90
2022/07/14 00:03:03;;;;;;;13.77;2.78;;;15.50;99.90;;;;;;4968613;28;20108;-90
2022/07/14 00:05:29;;;;;;;10.60;2.03;;;15.50;99.90;;;;;;4979959;28;20394;-90
2022/07/14 00:07:55;;;;;;;10.80;2.70;;;15.50;99.90;;;;;;4955934;28;20046;-90
2022/07/14 00:10:21;;;;;;;14.35;2.95;;;15.40;99.90;;;;;;4984155;28;20072;-90
2022/07/14 00:12:47;;;;;;;12.05;2.70;;;15.40;99.90;;;;;;4997621;28;20045;-90
2022/07/14 00:15:13;;;;;;;11.65;2.53;;;15.40;99.90;;;;;;4980033;28;20041;-91
2022/07/14 00:17:38;;;;;;;11.48;2.55;;;15.40;99.90;;;;;;4990496;28;20494;-88
2022/07/14 00:20:04;;;;;;;8.23;2.20;;;15.40;99.90;;;;;;4972044;28;20449;-90
2022/07/14 00:22:30;;;;;;;14.13;2.63;;;15.40;99.90;;;;;;4985748;28;20033;-89
2022/07/14 00:24:56;;;;;;;10.10;2.33;;;15.30;99.90;;;;;;4965547;28;20038;-89
2022/07/14 00:27:21;;;;;;;10.70;2.53;;;15.30;99.90;;;;;;4991123;28;20038;-90
2022/07/14 00:29:47;;;;;;;11.60;2.40;;;15.30;99.90;;;;;;4974312;28;20161;-90
2022/07/14 00:32:13;;;;;;;11.98;2.75;;;15.30;99.90;;;;;;5000888;28;20035;-89
2022/07/14 00:34:38;;;;;;;12.07;2.35;;;15.30;99.90;;;;;;5004694;28;20099;-89
2022/07/14 00:37:05;;;;;;;9.32;2.25;;;15.20;99.90;;;;;;4979691;28;20037;-90
2022/07/14 00:39:54;;;;;;;11.88;2.85;;;15.20;99.90;;;;;;4949540;28;20034;-89
2022/07/14 00:42:30;;;;;;;11.00;2.35;;;15.20;99.90;;;;;;4994656;28;20045;-90
2022/07/14 00:44:56;;;;;;;14.13;3.00;;;15.20;99.90;;;;;;4994368;28;20046;-90
2022/07/14 00:47:22;;;;;;;11.18;2.50;;;15.10;99.90;;;;;;4980033;28;20379;-90
2022/07/14 00:49:52;;;;;;;11.82;3.75;;;15.10;99.90;;;;;;4958950;28;20073;-89
2022/07/14 00:52:18;;;;;;;10.45;2.97;;;15.10;99.90;;;;;;4960164;28;20176;-89
2022/07/14 00:54:43;;;;;;;11.07;2.95;;;15.10;99.90;;;;;;4985527;28;20038;-90
2022/07/14 00:57:09;;;;;;;12.27;3.10;;;15.00;99.90;;;;;;4946101;28;20193;-90
2022/07/14 00:59:35;;;;;;;12.20;3.08;;;15.00;99.90;;;;;;4979314;28;20053;-90
2022/07/14 01:02:01;;;;;;;13.77;2.83;;;15.00;99.90;;;;;;4966427;28;20068;-90
2022/07/14 01:04:26;;;;;;;15.05;3.45;;;14.90;99.90;;;;;;4979724;28;20487;-89
2022/07/14 01:06:52;;;;;;;11.95;2.90;;;14.90;99.90;;;;;;4980890;28;20069;-89
2022/07/14 01:09:17;;;;;;;9.77;2.60;;;14.90;99.90;;;;;;4980106;28;20511;-89
2022/07/14 01:11:43;;;;;;;11.77;2.85;;;14.90;99.90;;;;;;4975502;28;20439;-90
2022/07/14 01:14:09;;;;;;;11.40;3.13;;;14.90;99.90;;;;;;4974954;28;20042;-89
2022/07/14 01:16:35;;;;;;;12.82;3.20;;;14.90;99.90;;;;;;4955099;28;20045;-90
2022/07/14 01:19:00;;;;;;;14.02;3.03;;;14.90;99.90;;;;;;4990085;28;20127;-90
2022/07/14 01:21:26;;;;;;;11.43;3.00;;;14.90;99.90;;;;;;4966663;28;20065;-89
2022/07/14 01:23:51;;;;;;;13.25;3.35;;;14.80;99.90;;;;;;4961677;28;20046;-91
2022/07/14 01:26:17;;;;;;;13.25;3.25;;;14.80;99.90;;;;;;4964319;28;20050;-89
2022/07/14 01:28:43;;;;;;;12.80;3.08;;;14.80;99.90;;;;;;4985948;28;20038;-89
2022/07/14 01:31:08;;;;;;;10.43;3.45;;;14.80;99.90;;;;;;4940169;28;20145;-90
2022/07/14 01:33:34;;;;;;;12.35;3.10;;;14.80;99.90;;;;;;4950299;28;20030;-90
2022/07/14 01:36:00;;;;;;;10.60;2.90;;;14.70;99.90;;;;;;4945310;28;20050;-89
2022/07/14 01:38:25;;;;;;;12.82;2.90;;;14.70;99.90;;;;;;4973395;28;20048;-89
2022/07/14 01:40:51;;;;;;;12.18;3.13;;;14.60;99.90;;;;;;4948432;28;20483;-89
2022/07/14 01:43:16;;;;;;;10.70;3.42;;;14.60;99.90;;;;;;4978688;28;20042;-88
2022/07/14 01:45:42;;;;;;;12.85;3.50;;;14.60;99.90;;;;;;4964355;28;20042;-90
2022/07/14 01:48:08;;;;;;;10.80;2.88;;;14.60;99.90;;;;;;4960407;28;20049;-90
2022/07/14 01:50:33;;;;;;;12.02;3.50;;;14.60;99.90;;;;;;4966853;28;20038;-89
2022/07/14 01:52:59;;;;;;;12.85;3.13;;;14.50;99.90;;;;;;4960160;28;20526;-90
2022/07/14 01:55:25;;;;;;;13.75;3.88;;;14.50;99.90;;;;;;4975967;28;20031;-89
2022/07/14 01:57:50;;;;;;;11.10;2.90;;;14.50;99.90;;;;;;4987861;28;20042;-90
2022/07/14 02:00:16;;;;;;;11.63;3.10;;;14.50;99.90;;;;;;4967689;28;20041;-89
2022/07/14 02:02:42;;;;;;;11.00;3.15;;;14.40;99.90;;;;;;4990157;28;20047;-90
2022/07/14 02:05:09;;;;;;;14.77;3.03;;;14.40;99.90;;;;;;5005600;28;20050;-89
2022/07/14 02:07:35;;;;;;;17.50;3.38;;;14.40;99.90;;;;;;4980064;28;20046;-89
2022/07/14 02:12:45;;;;;;;14.35;3.47;;;14.30;99.90;;;;;;4982716;28;20053;-90
2022/07/14 02:15:11;;;;;;;13.13;3.83;;;14.30;99.90;;;;;;5004159;28;20046;-89
2022/07/14 02:17:37;;;;;;;14.63;3.70;;;14.30;99.90;;;;;;4958189;28;20044;-89
2022/07/14 02:20:04;;;;;;;10.73;3.30;;;14.30;99.90;;;;;;4956612;28;20042;-90
2022/07/14 02:22:30;;;;;;;11.05;3.42;;;14.30;99.90;;;;;;4997456;28;20050;-90
2022/07/14 02:24:56;;;;;;;10.45;3.17;;;14.30;99.90;;;;;;4977569;28;20042;-89
2022/07/14 02:27:22;;;;;;;13.10;3.88;;;14.30;99.90;;;;;;4990915;28;20147;-90
2022/07/14 02:29:48;;;;;;;11.63;3.38;;;14.30;99.90;;;;;;4959565;28;20039;-89
2022/07/14 02:32:14;;;;;;;9.48;3.25;;;14.30;99.90;;;;;;4993357;28;20360;-89
2022/07/14 02:34:39;;;;;;;10.52;3.13;;;14.20;99.90;;;;;;5001636;28;20034;-89
2022/07/14 02:37:05;;;;;;;11.50;3.30;;;14.20;99.90;;;;;;4962010;28;20046;-90
2022/07/14 02:39:31;;;;;;;11.25;3.40;;;14.20;99.90;;;;;;4975044;28;20042;-89
2022/07/14 02:41:57;;;;;;;11.02;3.17;;;14.20;99.90;;;;;;4939860;28;20049;-89
2022/07/14 02:44:22;;;;;;;9.30;2.90;;;14.20;99.90;;;;;;5001197;28;20613;-89
2022/07/14 02:46:48;;;;;;;11.65;3.40;;;14.20;99.90;;;;;;4960353;28;20422;-90
2022/07/14 02:49:14;;;;;;;9.20;3.08;;;14.10;99.90;;;;;;4983740;28;20042;-89
2022/07/14 02:51:39;;;;;;;12.05;3.00;;;14.10;99.90;;;;;;4977350;28;20042;-90
2022/07/14 02:54:05;;;;;;;10.30;3.38;;;14.10;99.90;;;;;;4958496;28;20044;-89
2022/07/14 02:56:31;;;;;;;10.95;3.22;;;14.10;99.90;;;;;;4976572;28;20117;-90
2022/07/14 02:58:56;;;;;;;12.52;3.38;;;14.00;99.90;;;;;;4997961;28;20192;-90
2022/07/14 03:01:22;;;;;;;12.10;3.63;;;14.00;99.90;;;;;;4993440;28;20065;-90
2022/07/14 03:03:48;;;;;;;10.82;3.20;;;14.10;99.90;;;;;;4960514;28;20108;-90
2022/07/14 03:06:16;;;;;;;10.20;3.30;;;14.00;99.90;;;;;;4993472;28;20085;-91
2022/07/14 03:08:42;;;;;;;10.35;3.30;;;14.10;99.90;;;;;;4978648;28;20048;-89
2022/07/14 03:11:08;;;;;;;11.75;3.40;;;14.00;99.90;;;;;;4977086;28;20120;-90
2022/07/14 03:13:35;;;;;;;10.88;3.00;;;14.00;99.90;;;;;;4979208;28;20112;-90
2022/07/14 03:16:02;;;;;;;10.95;3.40;;;13.90;99.90;;;;;;4984010;28;20037;-90
2022/07/14 03:18:28;;;;;;;11.55;3.20;;;14.00;99.90;;;;;;4973227;28;20524;-89
2022/07/14 03:20:54;;;;;;;12.80;3.47;;;14.00;99.90;;;;;;4988610;28;20100;-90
2022/07/14 03:23:21;;;;;;;13.27;3.72;;;13.90;99.90;;;;;;4963344;28;20040;-90
2022/07/14 03:25:46;;;;;;;15.18;3.60;;;13.90;99.90;;;;;;4971934;28;20487;-90
2022/07/14 03:28:13;;;;;;;11.27;3.22;;;13.90;99.90;;;;;;4958367;28;20052;-90
2022/07/14 03:30:39;;;;;;;11.85;3.67;;;13.80;99.90;;;;;;4981355;28;20052;-89
2022/07/14 03:33:06;;;;;;;10.57;3.50;;;13.90;99.90;;;;;;4962286;28;20059;-89
2022/07/14 03:35:31;;;;;;;12.18;3.83;;;13.80;99.90;;;;;;4984197;28;20042;-88
2022/07/14 03:37:57;;;;;;;11.73;3.95;;;13.80;99.90;;;;;;4975002;28;20422;-89
2022/07/14 03:40:23;;;;;;;11.45;3.58;;;13.80;99.90;;;;;;4951074;28;20046;-89
2022/07/14 03:42:48;;;;;;;12.68;3.28;;;13.80;99.90;;;;;;4979531;28;20046;-89
2022/07/14 03:45:14;;;;;;;11.98;3.20;;;13.80;99.90;;;;;;4983444;28;20303;-89
2022/07/14 03:47:42;;;;;;;11.38;3.15;;;13.80;99.90;;;;;;4961238;28;20038;-90
2022/07/14 03:50:09;;;;;;;14.13;3.70;;;13.80;99.90;;;;;;4982044;28;20042;-90
2022/07/14 03:52:36;;;;;;;10.70;3.00;;;13.80;99.90;;;;;;4941609;28;20045;-90
2022/07/14 03:55:02;;;;;;;9.38;2.90;;;13.70;99.90;;;;;;4971217;28;20038;-90
2022/07/14 03:57:27;;;;;;;12.38;3.00;;;13.70;99.90;;;;;;4972968;28;20081;-89
2022/07/14 03:59:54;;;;;;;11.45;3.35;;;13.70;99.90;;;;;;4962980;28;20105;-89
2022/07/14 04:02:19;;;;;;;10.27;3.33;;;13.70;99.90;;;;;;4976162;28;20387;-89
2022/07/14 04:04:45;;;;;;;11.55;3.30;;;13.70;99.90;;;;;;4987844;28;20052;-91
2022/07/14 04:07:11;;;;;;;9.07;3.08;;;13.70;99.90;;;;;;5005006;28;20077;-89
2022/07/14 04:09:37;;;;;;;10.82;3.10;;;13.80;99.90;;;;;;4981278;28;20149;-90
2022/07/14 04:12:03;;;;;;;9.43;2.95;;;13.70;99.90;;;;;;4976899;28;20488;-90
2022/07/14 04:14:29;;;;;;;11.18;3.00;;;13.80;99.90;;;;;;4995217;28;20526;-89
2022/07/14 04:16:54;;;;;;;10.63;2.83;;;13.80;99.90;;;;;;4962468;28;20062;-89
2022/07/14 04:19:20;;;;;;;7.75;2.60;;;13.90;99.90;;;;;;4972084;28;20041;-90
2022/07/14 04:21:46;;;;;;;8.82;2.70;;;13.90;99.90;;;;;;4970991;28;20046;-90
2022/07/14 04:24:12;;;;;;;9.75;3.03;;;14.00;99.90;;;;;;4993674;28;20547;-89
2022/07/14 04:26:40;;;;;;;10.07;2.90;;;14.10;99.90;;;;;;4979910;28;20054;-89
2022/07/14 04:29:06;;;;;;;8.00;2.40;;;14.10;99.90;;;;;;4955345;28;20042;-90
2022/07/14 04:31:33;;;;;;;9.20;2.70;;;14.20;99.90;;;;;;4977227;28;20053;-90
2022/07/14 04:33:59;;;;;;;9.27;2.72;;;14.20;99.90;;;;;;4976554;28;20410;-89
2022/07/14 04:36:25;;;;;;;11.45;3.10;;;14.30;99.90;;;;;;4956510;28;20038;-90
2022/07/14 04:38:51;;;;;;;9.65;2.78;;;14.30;99.90;;;;;;4973503;28;20042;-88
2022/07/14 04:41:16;;;;;;;10.65;2.92;;;14.40;99.90;;;;;;4973336;28;20039;-89
2022/07/14 04:43:42;;;;;;;11.10;2.88;;;14.50;99.90;;;;;;4979629;28;20127;-90
2022/07/14 04:46:09;;;;;;;11.38;2.97;;;14.50;99.90;;;;;;4988899;28;20093;-89
2022/07/14 04:52:01;;;;;;;9.43;2.90;;;14.80;99.90;;;;;;4968946;28;20039;-89
2022/07/14 04:54:05;;;;;;;12.55;3.10;;;14.70;99.90;;;;;;4982437;28;20077;-90
2022/07/14 04:56:31;;;;;;;10.52;3.25;;;14.80;99.90;;;;;;5003919;28;20546;-90
2022/07/14 04:58:57;;;;;;;9.95;2.72;;;14.90;99.90;;;;;;4976466;28;20038;-89
2022/07/14 05:01:23;;;;;;;11.05;3.10;;;15.00;99.90;;;;;;4943773;28;20282;-89
2022/07/14 05:03:48;;;;;;;10.30;2.47;;;15.00;99.90;;;;;;4986853;28;20050;-90
2022/07/14 05:06:16;;;;;;;10.23;2.90;;;15.10;99.90;;;;;;4971311;28;20046;-90
2022/07/14 05:08:42;;;;;;;10.48;3.20;;;15.20;99.90;;;;;;4972305;28;20088;-90
2022/07/14 05:11:08;;;;;;;10.23;2.95;;;15.20;99.90;;;;;;4992678;28;20074;-90
2022/07/14 05:13:34;;;;;;;11.68;2.72;;;15.10;99.90;;;;;;4987917;28;20038;-90
2022/07/14 05:15:59;;;;;;;10.02;2.90;;;15.10;99.90;;;;;;4969869;28;20066;-90
2022/07/14 05:18:25;;;;;;;10.27;2.75;;;15.20;99.90;;;;;;5003107;28;20048;-91
2022/07/14 05:20:51;;;;;;;11.10;2.70;;;15.20;99.90;;;;;;4947734;28;20051;-90
2022/07/14 05:23:16;;;;;;;10.75;2.63;;;15.30;99.90;;;;;;4981558;28;20050;-89
2022/07/14 05:25:42;;;;;;;9.70;2.83;;;15.30;99.90;;;;;;4954798;28;20046;-90
2022/07/14 05:28:08;;;;;;;12.30;2.90;;;15.40;99.90;;;;;;5002008;28;20038;-90
2022/07/14 05:30:33;;;;;;;9.98;2.97;;;15.40;99.90;;;;;;4998129;28;20088;-90
2022/07/14 05:32:59;;;;;;;11.38;2.67;;;15.50;99.90;;;;;;4988584;28;20038;-90
2022/07/14 05:35:25;;;;;;;10.85;3.05;;;15.60;99.90;;;;;;4987815;28;20038;-89
2022/07/14 05:37:50;;;;;;;9.75;2.60;;;15.60;99.90;;;;;;5004801;28;20053;-89
2022/07/14 05:40:16;;;;;;;9.40;2.50;;;15.60;99.90;;;;;;4988543;28;20053;-90
2022/07/14 05:42:42;;;;;;;9.77;2.35;;;15.70;99.90;;;;;;5005360;28;20100;-90
2022/07/14 05:45:08;;;;;;;9.38;2.55;;;15.90;99.90;;;;;;4974861;28;20042;-89
2022/07/14 05:47:34;;;;;;;10.45;2.40;;;16.00;99.90;;;;;;4959883;28;20038;-90
2022/07/14 05:49:59;;;;;;;10.50;2.55;;;16.10;99.90;;;;;;4959595;28;20030;-89
2022/07/14 05:52:25;;;;;;;8.25;2.10;;;16.10;99.90;;;;;;4975623;28;20050;-91
2022/07/14 05:54:51;;;;;;;12.23;2.30;;;16.20;99.90;;;;;;4991128;28;20038;-90
2022/07/14 05:57:17;;;;;;;9.35;2.20;;;16.30;99.90;;;;;;4943872;28;20046;-90
2022/07/14 05:59:42;;;;;;;12.05;2.38;;;16.40;99.90;;;;;;4958841;28;20975;-89
2022/07/14 06:02:08;;;;;;;9.63;2.00;;;16.50;99.90;;;;;;4960089;28;20049;-91
2022/07/14 06:04:34;;;;;;;9.35;2.40;;;16.60;99.90;;;;;;4957590;28;20056;-90
2022/07/14 06:06:59;;;;;;;7.07;2.08;;;16.70;99.90;;;;;;5004545;28;20533;-90
2022/07/14 06:09:25;;;;;;;8.20;1.90;;;16.70;99.90;;;;;;4984617;28;20051;-90
2022/07/14 06:11:51;;;;;;;12.13;2.47;;;16.80;99.90;;;;;;4955577;28;20042;-90
2022/07/14 06:14:16;;;;;;;10.88;2.17;;;16.90;99.90;;;;;;4971331;28;20038;-91
2022/07/14 06:16:43;;;;;;;7.70;1.60;;;17.00;99.90;;;;;;4939399;28;20087;-90
2022/07/14 06:19:08;;;;;;;10.82;2.13;;;17.00;99.90;;;;;;4969372;28;20403;-90
2022/07/14 06:21:34;;;;;;;10.38;2.00;;;17.10;99.90;;;;;;4958285;28;20043;-90
2022/07/14 06:24:00;;;;;;;9.88;1.90;;;17.00;99.90;;;;;;4955571;28;20082;-90
2022/07/14 06:26:25;;;;;;;10.50;1.80;;;17.20;99.90;;;;;;4937923;28;20034;-91
2022/07/14 06:28:51;;;;;;;7.05;1.80;;;17.30;99.90;;;;;;4936568;28;20042;-89
2022/07/14 06:31:17;;;;;;;6.38;1.70;;;17.40;99.90;;;;;;4939887;28;20407;-90
2022/07/14 06:33:43;;;;;;;10.02;1.65;;;17.50;99.90;;;;;;4952351;28;20488;-91
2022/07/14 06:36:09;;;;;;;9.43;1.90;;;17.50;99.90;;;;;;4969862;28;20051;-90
2022/07/14 06:38:35;;;;;;;9.32;1.40;;;17.50;99.90;;;;;;4971293;28;20038;-91
2022/07/14 06:41:01;;;;;;;5.05;1.42;;;17.50;99.90;;;;;;4935369;28;20275;-90
2022/07/14 06:43:27;;;;;;;7.63;1.33;;;17.60;99.90;;;;;;4971259;28;20523;-90
2022/07/14 06:45:53;;;;;;;8.15;1.80;;;17.60;99.90;;;;;;4923868;28;20123;-91
2022/07/14 06:48:21;;;;;;;11.13;1.60;;;17.80;99.90;;;;;;4938648;28;20066;-90
2022/07/14 06:50:46;;;;;;;6.90;1.52;;;17.80;99.90;;;;;;4952718;28;20125;-91
2022/07/14 06:53:13;;;;;;;7.50;1.60;;;17.80;99.90;;;;;;4970270;28;20126;-92
2022/07/14 06:55:38;;;;;;;4.78;1.25;;;17.80;99.90;;;;;;4955389;28;20042;-90
2022/07/14 06:58:04;;;;;;;7.80;1.63;;;18.00;99.90;;;;;;4938153;28;20049;-90
2022/07/14 07:00:30;;;;;;;5.63;1.52;;;19.20;99.90;;;;;;4953910;28;20043;-91
2022/07/14 07:02:56;;;;;;;8.35;1.95;;;18.30;99.90;;;;;;4937494;28;20042;-90
2022/07/14 07:08:06;;;;;;;7.07;1.48;;;18.10;99.90;;;;;;4965953;28;20046;-91
2022/07/14 07:10:32;;;;;;;6.97;1.70;;;17.80;99.90;;;;;;4937152;28;20118;-90
2022/07/14 07:12:59;;;;;;;5.97;1.40;;;17.50;99.90;;;;;;4957489;28;20045;-89
2022/07/14 07:15:25;;;;;;;4.65;1.30;;;17.60;99.90;;;;;;4997593;28;20654;-91
2022/07/14 07:17:51;;;;;;;4.30;1.17;;;17.80;99.90;;;;;;4964996;28;20116;-92
2022/07/14 07:20:17;;;;;;;7.85;1.67;;;17.90;99.90;;;;;;4958242;28;20049;-91
2022/07/14 07:22:42;;;;;;;6.30;1.23;;;17.90;99.90;;;;;;4961959;28;20042;-91
2022/07/14 07:25:09;;;;;;;5.85;1.30;;;18.10;99.90;;;;;;4973347;28;20042;-91
2022/07/14 07:27:35;;;;;;;5.20;1.20;;;18.10;99.90;;;;;;4972547;28;20491;-92
2022/07/14 07:30:01;;;;;;;7.22;1.13;;;18.20;99.90;;;;;;4973986;28;20074;-91
2022/07/14 07:32:27;;;;;;;5.82;1.30;;;18.10;99.90;;;;;;4957488;28;20050;-91
2022/07/14 07:34:53;;;;;;;5.10;1.30;;;18.10;99.90;;;;;;4956732;28;20045;-90
2022/07/14 07:37:18;;;;;;;7.38;1.50;;;18.10;99.90;;;;;;4959877;28;20054;-89
2022/07/14 07:39:44;;;;;;;5.80;1.60;;;18.00;99.90;;;;;;4988474;28;20045;-89
2022/07/14 07:42:10;;;;;;;4.28;1.15;;;17.90;99.90;;;;;;4948884;28;20483;-90
2022/07/14 07:44:36;;;;;;;5.20;1.67;;;18.10;99.90;;;;;;4962715;28;20521;-90
2022/07/14 07:47:03;;;;;;;5.45;1.40;;;18.30;99.90;;;;;;5001936;28;20045;-91
2022/07/14 07:49:29;;;;;;;4.07;0.93;;;18.40;99.90;;;;;;4973157;28;20046;-91
2022/07/14 07:51:59;;;;;;;3.45;1.10;;;18.50;99.90;;;;;;4993243;28;20044;-90
2022/07/14 07:54:26;;;;;;;6.70;1.33;;;18.70;99.90;;;;;;4986800;28;20472;-89
2022/07/14 07:56:53;;;;;;;3.72;0.80;;;18.80;99.90;;;;;;4974199;28;20113;-89
2022/07/14 07:59:19;;;;;;;3.60;1.15;;;19.00;99.90;;;;;;4971678;28;20077;-90
2022/07/14 08:01:44;;;;;;;5.45;1.20;;;19.10;99.90;;;;;;4990701;28;20045;-91
2022/07/14 08:04:10;;;;;;;4.25;0.93;;;19.20;99.90;;;;;;4983792;28;20038;-93
2022/07/14 08:06:36;;;;;;;6.13;1.13;;;19.10;99.90;;;;;;4948892;28;21113;-91
2022/07/14 08:09:02;;;;;;;6.03;1.33;;;19.00;99.90;;;;;;4973714;28;20065;-91
2022/07/14 08:11:29;;;;;;;3.28;0.95;;;18.90;99.90;;;;;;4975431;28;20468;-91
2022/07/14 08:13:55;;;;;;;4.05;1.23;;;19.10;99.90;;;;;;5009311;28;20494;-91
2022/07/14 08:16:20;;;;;;;2.85;1.00;;;19.20;99.90;;;;;;4993306;28;20052;-92
2022/07/14 08:18:46;;;;;;;4.70;1.20;;;19.40;99.90;;;;;;4973444;28;20041;-91
2022/07/14 08:21:13;;;;;;;5.47;1.30;;;19.50;99.90;;;;;;4960112;28;20042;-91
2022/07/14 08:23:38;;;;;;;5.60;1.10;;;19.70;99.90;;;;;;5008558;28;20100;-91
2022/07/14 08:26:04;;;;;;;3.42;1.05;;;19.80;99.90;;;;;;4976957;28;20128;-91
2022/07/14 08:28:30;;;;;;;5.13;1.10;;;19.60;99.90;;;;;;4976540;28;20474;-92
2022/07/14 08:30:56;;;;;;;5.15;1.10;;;19.50;99.90;;;;;;4962571;28;20041;-91
2022/07/14 08:33:21;;;;;;;3.58;1.10;;;19.50;99.90;;;;;;4992730;28;20037;-91
2022/07/14 08:35:47;;;;;;;3.38;0.98;;;19.50;99.90;;;;;;4993202;28;20092;-90
2022/07/14 08:38:13;;;;;;;3.55;0.95;;;19.80;99.90;;;;;;4960697;28;20507;-92
2022/07/14 08:40:39;;;;;;;4.43;1.10;;;19.90;99.90;;;;;;4960787;28;20502;-92
2022/07/14 08:43:05;;;;;;;5.35;1.30;;;19.90;99.90;;;;;;4991846;28;20468;-91
2022/07/14 08:45:38;;;;;;;4.45;1.20;;;19.80;99.90;;;;;;4992633;28;20052;-91
2022/07/14 08:48:04;;;;;;;4.88;1.10;;;19.80;99.90;;;;;;4992585;28;20387;-91
2022/07/14 08:50:31;;;;;;;5.45;1.13;;;20.00;99.90;;;;;;4975583;28;20050;-91
2022/07/14 08:52:57;;;;;;;5.03;1.20;;;20.20;99.90;;;;;;4992388;28;20049;-91
2022/07/14 08:55:23;;;;;;;3.85;1.02;;;20.20;99.90;;;;;;4989216;28;20034;-91
2022/07/14 08:57:48;;;;;;;6.38;1.10;;;20.20;99.90;;;;;;4975988;28;20137;-92
2022/07/14 09:00:17;;;;;;;6.10;1.20;;;20.10;99.90;;;;;;4970024;28;20133;-91
2022/07/14 09:02:48;;;;;;;6.22;1.30;;;19.80;99.90;;;;;;4989075;28;20052;-91
2022/07/14 09:05:15;;;;;;;4.97;1.55;;;19.70;99.90;;;;;;4971457;28;20049;-92
2022/07/14 09:07:41;;;;;;;3.50;1.10;;;19.60;99.90;;;;;;4975374;28;20538;-92
2022/07/14 09:10:09;;;;;;;5.18;1.30;;;19.60;99.90;;;;;;4975550;28;20096;-91
2022/07/14 09:12:35;;;;;;;3.97;1.15;;;19.50;99.90;;;;;;4975964;28;20204;-92
2022/07/14 09:18:01;;;;;;;7.32;1.35;;;19.50;99.90;;;;;;4994233;28;20049;-91
2022/07/14 09:20:34;;;;;;;6.07;1.30;;;19.80;99.90;;;;;;4996299;28;20046;-91
2022/07/14 09:23:02;;;;;;;6.63;1.42;;;20.10;99.90;;;;;;4979703;28;20042;-92
2022/07/14 09:25:31;;;;;;;6.75;1.50;;;20.10;99.90;;;;;;4996214;28;20056;-91
2022/07/14 09:27:57;;;;;;;3.92;1.08;;;19.90;99.90;;;;;;4979602;28;20524;-92
2022/07/14 09:30:24;;;;;;;4.60;1.13;;;19.70;99.90;;;;;;4982952;28;20042;-91
2022/07/14 09:32:58;;;;;;;1.73;0.88;;;19.40;99.90;;;;;;4995836;28;20070;-91
2022/07/14 09:35:33;;;;;;;6.95;1.13;;;19.40;99.90;;;;;;4967405;28;20117;-92
2022/07/14 09:38:00;;;;;;;3.90;1.10;;;19.50;99.90;;;;;;4995673;28;20049;-93
2022/07/14 09:40:31;;;;;;;2.80;1.00;;;19.70;99.90;;;;;;4963011;28;20038;-93
2022/07/14 09:43:03;;;;;;;3.10;0.88;;;19.90;99.90;;;;;;4979218;28;20049;-92
2022/07/14 09:45:37;;;;;;;3.80;1.08;;;20.10;99.90;;;;;;4963422;28;20041;-92
2022/07/14 09:48:07;;;;;;;3.47;1.02;;;20.10;99.90;;;;;;4994956;28;21757;-92
2022/07/14 09:50:43;;;;;;;2.78;0.93;;;20.30;99.90;;;;;;4994660;28;20053;-92
2022/07/14 09:53:10;;;;;;;4.45;1.30;;;20.30;99.90;;;;;;4979104;28;20073;-92
2022/07/14 09:55:36;;;;;;;2.65;0.88;;;20.40;99.90;;;;;;4981634;28;20049;-92
2022/07/14 09:58:03;;;;;;;3.28;0.95;;;20.60;99.90;;;;;;4995186;28;20046;-92
2022/07/14 10:00:29;;;;;;;5.20;1.02;;;20.60;99.90;;;;;;5009994;28;20056;-91
2022/07/14 10:02:55;;;;;;;3.97;1.00;;;20.50;99.90;;;;;;4982631;28;20049;-91
2022/07/14 10:05:21;;;;;;;6.68;1.17;;;20.50;99.90;;;;;;4962890;28;20041;-91
2022/07/14 10:07:48;;;;;;;6.18;1.67;;;20.60;99.90;;;;;;4962037;28;20104;-90
2022/07/14 10:10:15;;;;;;;5.88;1.30;;;20.60;99.90;;;;;;4979139;28;20050;-93
2022/07/14 10:12:42;;;;;;;3.83;1.00;;;20.60;99.90;;;;;;4979419;28;20041;-92
2022/07/14 10:15:13;;;;;;;4.10;0.88;;;20.50;99.90;;;;;;4978846;28;20092;-91
2022/07/14 10:17:41;;;;;;;5.50;1.50;;;20.50;99.90;;;;;;4978961;28;20475;-92
2022/07/14 10:20:10;;;;;;;5.38;1.25;;;20.60;99.90;;;;;;4994661;28;20077;-92
2022/07/14 10:22:36;;;;;;;1.95;1.08;;;20.60;99.90;;;;;;4978983;28;20173;-91
2022/07/14 10:25:04;;;;;;;7.18;1.40;;;20.70;99.90;;;;;;5000311;28;20136;-92
2022/07/14 10:27:30;;;;;;;3.30;1.08;;;20.70;99.90;;;;;;4999536;28;20080;-92
2022/07/14 10:29:57;;;;;;;6.40;1.35;;;20.60;99.90;;;;;;5009626;28;20037;-91
2022/07/14 10:32:29;;;;;;;2.80;0.95;;;20.60;99.90;;;;;;4991553;28;20042;-91
2022/07/14 10:34:54;;;;;;;4.90;1.20;;;20.60;99.90;;;;;;4982880;28;20053;-90
2022/07/14 10:37:30;;;;;;;3.88;1.05;;;20.50;99.90;;;;;;4984364;28;20034;-91
2022/07/14 10:40:24;;;;;;;5.97;1.20;;;20.50;99.90;;;;;;4994726;28;20486;-90
2022/07/14 10:43:04;;;;;;;3.60;1.08;;;20.70;99.90;;;;;;5010995;28;20119;-92
2022/07/14 10:45:31;;;;;;;3.95;1.02;;;20.70;99.90;;;;;;4979196;28;20125;-93
2022/07/14 10:47:57;;;;;;;5.47;1.55;;;20.70;99.90;;;;;;4961641;28;20458;-92
2022/07/14 10:50:25;;;;;;;4.10;1.00;;;20.80;99.90;;;;;;4962167;28;20322;-91
2022/07/14 10:52:54;;;;;;;3.70;1.08;;;20.80;99.90;;;;;;4978266;28;20095;-91
2022/07/14 10:55:32;;;;;;;2.47;0.90;;;20.70;99.90;;;;;;4990496;28;20504;-91
2022/07/14 10:58:01;;;;;;;5.80;1.25;;;20.50;99.90;;;;;;4976581;28;20050;-92
2022/07/14 11:00:42;;;;;;;5.03;1.08;;;20.20;99.90;;;;;;4978421;28;20402;-91
2022/07/14 11:03:18;;;;;;;3.42;1.20;;;20.10;99.90;;;;;;4978055;28;20135;-92
2022/07/14 11:06:07;;;;;;;3.95;1.00;;;20.00;99.90;;;;;;5023231;28;20092;-91
2022/07/14 11:08:39;;;;;;;4.25;1.08;;;19.80;99.90;;;;;;4976982;28;20364;-92
2022/07/14 11:11:20;;;;;;;5.95;1.83;;;19.80;99.90;;;;;;4980331;28;20406;-90
2022/07/14 11:14:01;;;;;;;3.28;0.98;;;19.80;99.90;;;;;;4966945;28;20305;-91
2022/07/14 11:16:45;;;;;;;4.20;1.10;;;19.90;99.90;;;;;;4994089;28;20092;-92
2022/07/14 11:19:33;;;;;;;5.32;1.40;;;19.90;99.90;;;;;;4977058;28;20121;-91
2022/07/14 11:22:11;;;;;;;5.40;1.30;;;19.90;99.90;;;;;;4978155;28;20124;-93
2022/07/14 11:24:48;;;;;;;4.03;1.10;;;19.80;99.90;;;;;;4977049;28;20135;-91
2022/07/14 11:27:27;;;;;;;4.63;1.25;;;19.70;99.90;;;;;;4993167;28;20038;-91
2022/07/14 11:29:55;;;;;;;5.40;1.27;;;19.70;99.90;;;;;;4977420;28;20125;-92
2022/07/14 11:32:32;;;;;;;4.85;1.00;;;19.70;99.90;;;;;;4988335;28;20107;-92
2022/07/14 11:38:22;;;;;;;3.00;0.80;;;19.80;99.90;;;;;;4980674;28;20042;-92
2022/07/14 11:40:52;;;;;;;5.00;1.05;;;19.90;99.90;;;;;;4995964;28;20050;-91
2022/07/14 11:43:30;;;;;;;3.30;0.90;;;20.20;99.90;;;;;;4977357;28;20045;-90
2022/07/14 11:45:58;;;;;;;4.15;1.20;;;20.40;99.90;;;;;;4993618;28;20092;-90
2022/07/14 11:48:30;;;;;;;4.38;0.82;;;20.70;99.90;;;;;;4992604;28;20073;-90
2022/07/14 11:51:04;;;;;;;4.47;1.27;;;21.00;99.90;;;;;;4977320;28;20490;-91
2022/07/14 11:53:31;;;;;;;5.10;1.20;;;21.10;99.90;;;;;;4977032;28;20501;-92
2022/07/14 11:55:58;;;;;;;5.40;1.38;;;21.20;99.90;;;;;;4960741;28;20514;-91
2022/07/14 11:58:24;;;;;;;5.57;1.15;;;21.20;99.90;;;;;;4957599;28;20077;-92
2022/07/14 12:00:57;;;;;;;4.00;1.13;;;21.20;99.90;;;;;;4977393;28;20129;-91
2022/07/14 12:03:25;;;;;;;3.80;1.10;;;21.10;99.90;;;;;;4961021;28;20037;-92
2022/07/14 12:05:54;;;;;;;4.78;0.98;;;21.20;99.90;;;;;;4961373;28;20073;-91
2022/07/14 12:08:22;;;;;;;5.57;1.30;;;21.20;99.90;;;;;;4990609;28;20073;-91
2022/07/14 12:10:49;;;;;;;7.18;1.40;;;21.00;99.90;;;;;;4976982;28;20506;-92
2022/07/14 12:13:16;;;;;;;5.18;1.20;;;21.00;99.90;;;;;;4960012;28;20091;-91
2022/07/14 12:15:42;;;;;;;4.18;1.30;;;20.70;99.90;;;;;;4976522;28;20042;-94
2022/07/14 12:18:09;;;;;;;6.32;1.30;;;20.40;99.90;;;;;;4976866;28;20095;-91
2022/07/14 12:20:42;;;;;;;4.88;1.38;;;20.10;99.90;;;;;;4960565;28;20503;-91
2022/07/14 12:23:08;;;;;;;7.18;1.70;;;19.90;99.90;;;;;;4991902;28;20073;-91
2022/07/14 12:25:36;;;;;;;5.32;1.25;;;19.70;99.90;;;;;;5009505;28;20414;-91
2022/07/14 12:28:05;;;;;;;5.65;1.50;;;19.70;99.90;;;;;;4992228;28;20073;-92
2022/07/14 12:30:46;;;;;;;3.35;1.00;;;19.60;99.90;;;;;;4976397;28;20673;-91
2022/07/14 12:33:20;;;;;;;7.55;1.50;;;19.50;99.90;;;;;;4973744;28;20132;-92
2022/07/14 12:35:47;;;;;;;7.00;1.67;;;19.60;99.90;;;;;;4992803;28;20038;-92
2022/07/14 12:38:15;;;;;;;6.00;1.40;;;19.70;99.90;;;;;;4976544;28;20037;-92
2022/07/14 12:40:41;;;;;;;9.13;1.40;;;20.10;99.90;;;;;;4960949;28;20049;-91
2022/07/14 12:43:09;;;;;;;8.13;1.40;;;20.50;99.90;;;;;;4975890;28;20573;-91
2022/07/14 12:46:02;;;;;;;4.65;1.33;;;20.80;99.90;;;;;;4976492;28;20587;-91
2022/07/14 12:48:29;;;;;;;7.57;1.30;;;20.70;99.90;;;;;;4976118;28;20062;-90
2022/07/14 12:50:56;;;;;;;5.53;1.50;;;20.60;99.90;;;;;;4976490;28;20053;-92
2022/07/14 12:53:21;;;;;;;5.50;1.38;;;20.50;99.90;;;;;;4962797;28;20042;-93
2022/07/14 12:55:48;;;;;;;6.47;1.50;;;20.30;99.90;;;;;;4980267;28;20088;-92
2022/07/14 12:58:15;;;;;;;6.60;1.30;;;20.10;99.90;;;;;;5012451;28;20045;-92